createdAt,value
2023-08-11T00:04:15.449Z,23.11
2023-08-11T00:09:16.783Z,23.13
2023-08-11T00:14:18.148Z,23.09
2023-08-11T00:19:19.468Z,23.13
2023-08-11T00:24:20.810Z,23.15
2023-08-11T00:29:22.133Z,23.17
2023-08-11T00:34:23.425Z,23.15
2023-08-11T00:39:24.780Z,23.13
2023-08-11T00:44:26.081Z,23.10
2023-08-11T00:49:27.373Z,23.09
2023-08-11T00:54:28.926Z,23.11
2023-08-11T00:59:30.264Z,23.08
2023-08-11T01:04:31.552Z,23.08
2023-08-11T01:09:32.762Z,23.09
2023-08-11T01:14:38.160Z,23.12
2023-08-11T01:19:39.473Z,23.08
2023-08-11T01:24:40.810Z,23.11
2023-08-11T01:29:42.122Z,23.13
2023-08-11T01:34:43.416Z,23.10
2023-08-11T01:39:44.764Z,23.11
2023-08-11T01:44:46.622Z,23.11
2023-08-11T01:49:48.094Z,23.10
2023-08-11T01:54:49.382Z,23.10
2023-08-11T01:59:51.011Z,23.11
2023-08-11T02:04:52.434Z,23.07
2023-08-11T02:09:55.569Z,23.12
2023-08-11T02:14:56.906Z,23.10
2023-08-11T02:19:59.244Z,23.09
2023-08-11T02:25:00.593Z,23.07
2023-08-11T02:30:02.967Z,23.07
2023-08-11T02:35:04.788Z,23.05
2023-08-11T02:40:10.343Z,23.06
2023-08-11T02:45:12.253Z,23.03
2023-08-11T02:50:14.348Z,23.04
2023-08-11T02:55:16.010Z,23.08
2023-08-11T03:00:17.299Z,23.08
2023-08-11T03:05:18.637Z,23.05
2023-08-11T03:10:19.934Z,23.04
2023-08-11T03:15:21.338Z,23.03
2023-08-11T03:20:22.672Z,23.04
2023-08-11T03:25:24.015Z,23.03
2023-08-11T03:30:25.563Z,23.04
2023-08-11T03:35:26.860Z,23.05
2023-08-11T03:40:29.520Z,23.02
2023-08-11T03:45:30.830Z,23.02
2023-08-11T03:50:32.147Z,23.03
2023-08-11T03:55:33.476Z,23.04
2023-08-11T04:00:34.813Z,23.04
2023-08-11T04:05:38.835Z,23.02
2023-08-11T04:10:40.172Z,22.97
2023-08-11T04:15:41.469Z,23.03
2023-08-11T04:20:42.771Z,22.99
2023-08-11T04:25:44.369Z,22.95
2023-08-11T04:30:45.815Z,22.97
2023-08-11T04:35:47.579Z,22.99
2023-08-11T04:40:51.882Z,22.95
2023-08-11T04:45:53.183Z,22.98
2023-08-11T04:50:57.437Z,22.99
2023-08-11T04:55:58.763Z,23.02
2023-08-11T05:01:00.476Z,23.04
2023-08-11T05:06:03.809Z,23.05
2023-08-11T05:11:06.479Z,23.04
2023-08-11T05:16:07.847Z,23.08
2023-08-11T05:21:09.232Z,23.10
2023-08-11T05:26:10.527Z,23.09
2023-08-11T05:31:12.057Z,23.16
2023-08-11T05:36:13.351Z,23.15
2023-08-11T05:41:14.674Z,23.17
2023-08-11T05:46:16.136Z,23.19
2023-08-11T05:51:17.576Z,23.22
2023-08-11T05:56:18.877Z,23.24
2023-08-11T06:01:20.204Z,23.23
2023-08-11T06:06:21.526Z,23.24
2023-08-11T06:11:22.818Z,23.23
2023-08-11T06:16:24.249Z,23.35
2023-08-11T06:21:25.624Z,23.44
2023-08-11T06:26:26.967Z,23.54
2023-08-11T06:31:28.352Z,23.61
2023-08-11T06:36:30.223Z,23.67
2023-08-11T06:41:31.554Z,23.74
2023-08-11T06:46:32.863Z,23.75
2023-08-11T06:51:34.174Z,23.78
2023-08-11T06:56:35.512Z,23.80
2023-08-11T07:01:36.859Z,23.82
2023-08-11T07:06:38.241Z,23.87
2023-08-11T07:11:39.536Z,23.87
2023-08-11T07:16:40.897Z,23.93
2023-08-11T07:21:42.196Z,23.91
2023-08-11T07:26:43.487Z,23.94
2023-08-11T07:31:44.834Z,23.98
2023-08-11T07:36:46.212Z,23.96
2023-08-11T07:41:47.728Z,23.99
2023-08-11T07:46:49.133Z,24.06
2023-08-11T07:51:50.516Z,24.10
2023-08-11T07:56:51.842Z,24.14
2023-08-11T08:06:54.750Z,24.14
2023-08-11T08:11:56.043Z,24.22
2023-08-11T08:16:59.461Z,24.21
2023-08-11T08:22:00.785Z,24.25
2023-08-11T08:27:02.102Z,24.33
2023-08-11T08:32:03.429Z,24.35
2023-08-11T08:37:04.798Z,24.33
2023-08-11T08:42:06.107Z,24.39
2023-08-11T08:47:07.698Z,24.44
2023-08-11T08:52:09.246Z,24.44
2023-08-11T08:57:12.302Z,24.50
2023-08-11T09:02:15.751Z,24.54
2023-08-11T09:07:20.101Z,24.56
2023-08-11T09:12:26.814Z,24.59
2023-08-11T09:17:28.328Z,24.62
2023-08-11T09:22:33.508Z,24.68
2023-08-11T09:27:34.911Z,24.69
2023-08-11T09:32:36.248Z,24.70
2023-08-11T09:37:37.962Z,24.75
2023-08-11T09:42:39.434Z,24.72
2023-08-11T09:47:41.022Z,24.76
2023-08-11T09:52:42.674Z,24.85
2023-08-11T09:57:44.131Z,24.86
2023-08-11T10:02:47.177Z,24.88
2023-08-11T10:07:48.518Z,24.90
2023-08-11T10:12:53.017Z,24.90
2023-08-11T10:17:55.136Z,24.93
2023-08-11T10:22:57.131Z,24.94
2023-08-11T10:27:58.434Z,24.96
2023-08-11T10:33:09.258Z,24.96
2023-08-11T10:38:11.358Z,24.99
2023-08-11T10:43:12.655Z,24.93
2023-08-11T10:48:13.950Z,24.98
2023-08-11T10:53:20.571Z,25.00
2023-08-11T10:58:23.127Z,25.02
2023-08-11T11:03:24.429Z,25.08
2023-08-11T11:08:25.751Z,25.09
2023-08-11T11:13:27.040Z,25.13
2023-08-11T11:18:28.348Z,25.13
2023-08-11T11:23:29.639Z,25.14
2023-08-11T11:28:31.499Z,25.23
2023-08-11T11:33:32.863Z,25.25
2023-08-11T11:38:34.179Z,25.29
2023-08-11T11:43:35.486Z,25.29
2023-08-11T11:48:36.788Z,25.29
2023-08-11T11:53:39.545Z,25.29
2023-08-11T11:58:40.946Z,25.35
2023-08-11T12:03:42.497Z,25.38
2023-08-11T12:08:44.018Z,25.40
2023-08-11T12:13:47.901Z,25.44
2023-08-11T12:18:49.414Z,25.50
2023-08-11T12:23:50.714Z,25.50
2023-08-11T12:28:52.024Z,25.54
2023-08-11T12:33:53.387Z,25.53
2023-08-11T12:38:54.752Z,25.58
2023-08-11T12:43:56.102Z,25.59
2023-08-11T12:48:57.944Z,25.57
2023-08-11T12:53:59.233Z,25.60
2023-08-11T12:59:00.571Z,25.59
2023-08-11T13:04:02.621Z,25.59
2023-08-11T13:09:03.942Z,25.59
2023-08-11T13:14:05.267Z,25.62
2023-08-11T13:19:06.629Z,25.57
2023-08-11T13:24:08.375Z,25.59
2023-08-11T13:29:10.715Z,25.60
2023-08-11T13:34:12.019Z,25.61
2023-08-11T13:39:13.743Z,25.63
2023-08-11T13:44:15.152Z,25.65
2023-08-11T13:49:16.552Z,25.65
2023-08-11T13:54:17.864Z,25.64
2023-08-11T13:59:19.152Z,25.67
2023-08-11T14:04:20.457Z,25.64
2023-08-11T14:09:21.773Z,25.67
2023-08-11T14:14:23.074Z,25.64
2023-08-11T14:19:24.370Z,25.65
2023-08-11T14:24:25.680Z,25.63
2023-08-11T14:29:26.988Z,25.57
2023-08-11T14:34:28.274Z,25.57
2023-08-11T14:39:29.585Z,25.57
2023-08-11T14:44:30.971Z,25.56
2023-08-11T14:49:32.315Z,25.56
2023-08-11T14:54:33.627Z,25.55
2023-08-11T14:59:34.934Z,25.52
2023-08-11T15:04:36.251Z,25.44
2023-08-11T15:09:37.591Z,25.39
2023-08-11T15:14:38.893Z,25.32
2023-08-11T15:19:40.192Z,25.26
2023-08-11T15:24:41.484Z,25.23
2023-08-11T15:29:42.901Z,25.19
2023-08-11T15:34:44.318Z,25.15
2023-08-11T15:39:45.655Z,25.14
2023-08-11T15:44:47.370Z,25.09
2023-08-11T15:49:48.658Z,25.04
2023-08-11T15:54:49.945Z,25.02
2023-08-11T15:59:51.230Z,25.04
2023-08-11T16:04:52.826Z,25.01
2023-08-11T16:09:54.158Z,24.97
2023-08-11T16:14:55.521Z,25.01
2023-08-11T16:19:56.888Z,24.99
2023-08-11T16:24:58.178Z,24.99
2023-08-11T16:29:59.904Z,25.02
2023-08-11T16:35:01.426Z,25.01
2023-08-11T16:40:03.719Z,25.05
2023-08-11T16:45:05.210Z,25.06
2023-08-11T16:50:07.905Z,25.10
2023-08-11T16:55:09.306Z,25.09
2023-08-11T17:00:11.988Z,25.09
2023-08-11T17:05:13.357Z,25.11
2023-08-11T17:10:14.880Z,25.11
2023-08-11T17:15:17.873Z,25.05
2023-08-11T17:20:19.259Z,25.01
2023-08-11T17:25:21.466Z,24.99
2023-08-11T17:30:22.851Z,24.98
2023-08-11T17:35:24.247Z,24.94
2023-08-11T17:40:25.544Z,24.93
2023-08-11T17:45:26.909Z,24.90
2023-08-11T17:50:28.243Z,24.89
2023-08-11T17:55:29.547Z,24.86
2023-08-11T18:00:30.879Z,24.90
2023-08-11T18:05:32.191Z,24.89
2023-08-11T18:10:33.507Z,24.86
2023-08-11T18:15:34.860Z,24.85
2023-08-11T18:20:36.165Z,24.84
2023-08-11T18:25:37.613Z,24.83
2023-08-11T18:30:39.719Z,24.81
2023-08-11T18:35:41.482Z,24.81
2023-08-11T18:40:42.795Z,24.79
2023-08-11T18:45:44.083Z,24.77
2023-08-11T18:50:45.941Z,24.78
2023-08-11T18:55:47.244Z,24.79
2023-08-11T19:00:48.536Z,24.78
2023-08-11T19:05:49.838Z,24.76
2023-08-11T19:10:51.134Z,24.75
2023-08-11T19:15:52.423Z,24.75
2023-08-11T19:20:53.743Z,24.75
2023-08-11T19:25:55.038Z,24.74
2023-08-11T19:30:56.404Z,24.71
2023-08-11T19:35:57.713Z,24.68
2023-08-11T19:40:59.018Z,24.65
2023-08-11T19:46:00.349Z,24.62
2023-08-11T19:51:01.666Z,24.57
2023-08-11T19:56:02.971Z,24.60
2023-08-11T20:01:06.848Z,24.56
2023-08-11T20:06:08.226Z,24.55
2023-08-11T20:11:09.518Z,24.51
2023-08-11T20:16:10.945Z,24.53
2023-08-11T20:21:12.284Z,24.52
2023-08-11T20:26:13.604Z,24.49
2023-08-11T20:31:15.085Z,24.47
2023-08-11T20:36:16.400Z,24.49
2023-08-11T20:41:17.703Z,24.44
2023-08-11T20:46:19.360Z,24.47
2023-08-11T20:51:20.671Z,24.42
2023-08-11T20:56:21.975Z,24.36
2023-08-11T21:01:23.375Z,24.38
2023-08-11T21:06:24.674Z,24.34
2023-08-11T21:11:25.971Z,24.36
2023-08-11T21:16:27.371Z,24.32
2023-08-11T21:21:28.685Z,24.26
2023-08-11T21:26:31.322Z,24.27
2023-08-11T21:31:32.712Z,24.24
2023-08-11T21:36:34.190Z,24.19
2023-08-11T21:41:36.047Z,24.18
2023-08-11T21:46:37.364Z,24.17
2023-08-11T21:51:38.709Z,24.13
2023-08-11T21:56:40.041Z,24.14
2023-08-11T22:01:41.940Z,24.06
2023-08-11T22:06:43.318Z,24.04
2023-08-11T22:11:44.639Z,24.05
2023-08-11T22:16:45.985Z,24.08
2023-08-11T22:21:47.291Z,24.03
2023-08-11T22:26:48.592Z,24.03
2023-08-11T22:31:49.938Z,23.97
2023-08-11T22:36:52.288Z,23.95
2023-08-11T22:41:53.770Z,23.88
2023-08-11T22:46:55.104Z,23.84
2023-08-11T22:51:56.398Z,23.89
2023-08-11T22:56:57.711Z,23.78
2023-08-11T23:01:59.054Z,23.82
2023-08-11T23:07:00.417Z,23.83
2023-08-11T23:12:04.347Z,23.83
2023-08-11T23:17:06.205Z,23.69
2023-08-11T23:22:07.504Z,23.76
2023-08-11T23:27:09.153Z,23.71
2023-08-11T23:32:10.901Z,23.63
2023-08-11T23:37:12.532Z,23.61
2023-08-11T23:42:15.421Z,23.65
2023-08-11T23:47:16.767Z,23.58
2023-08-11T23:52:19.391Z,23.59
2023-08-11T23:57:22.841Z,23.59
